KTVL Airport Information

Runway Information
Runway 18 Length 8544 ft width 150 ft
Elevation 6251 ft Threshold 0 ft Heading 193
Runway 36 Length 8544 ft Width 150 ft
Elevation 6259 ft Threshold 2037 ft Heading 13
Airport Frequencies
Type ASOS Name ASOS Frequency 124.725 MHZ
Type CNTR Name OAKLAND CN Frequency 127.95 MHZ
Type CTAF Name CTAF Frequency 122.95 MHZ
Type RDO Name RENO RDO Frequency 122.25 MHZ
Type UNIC Name UNICOM Frequency 122.95 MHZ
Airport Navaids
Airport Weather Information & NOTAM
ADDS - METARS form results

(0148 UTC 19 January 2018)
 
METAR text: KTVL 190053Z AUTO 20015G21KT 10SM BKN034 BKN046 OVC055 07/00 A2996 RMK AO2 RAB05E10 SLP117 P0000 T00670000
Conditions at: KTVL (SOUTH LAKE TAHOE, CA, US) observed 0053 UTC 19 January 2018
Temperature: 6.7°C (44°F)
Dewpoint: 0.0°C (32°F) [RH = 62%]
Pressure (altimeter): 29.96 inches Hg (1014.6 mb)
[Sea-level pressure: 1011.7 mb]
Winds: from the SSW (200 degrees) at 17 MPH (15 knots; 7.8 m/s)
gusting to 24 MPH (21 knots; 10.9 m/s)
Visibility: 10 or more miles (16+ km)
Ceiling: 3400 feet AGL
Clouds: broken clouds at 3400 feet AGL
broken clouds at 4600 feet AGL
overcast cloud deck at 5500 feet AGL
Weather: automated observation with no human augmentation;
there may or may not be significant weather present at this time